createdAt,value
2022-09-24T00:00:11.728Z,61.00
2022-09-24T00:01:45.144Z,61.10
2022-09-24T00:03:19.916Z,60.70
2022-09-24T00:04:55.090Z,61.40
2022-09-24T00:06:30.726Z,61.40
2022-09-24T00:08:04.204Z,61.60
2022-09-24T00:09:37.586Z,61.40
2022-09-24T00:11:11.899Z,61.40
2022-09-24T00:12:47.976Z,61.50
2022-09-24T00:14:21.606Z,61.00
2022-09-24T00:15:54.270Z,61.30
2022-09-24T00:17:27.578Z,61.20
2022-09-24T00:19:04.447Z,61.20
2022-09-24T00:20:39.035Z,61.50
2022-09-24T00:22:12.602Z,60.30
2022-09-24T00:23:49.585Z,61.80
2022-09-24T00:25:52.386Z,61.50
2022-09-24T00:27:25.840Z,61.00
2022-09-24T00:28:59.943Z,61.20
2022-09-24T00:30:33.829Z,61.20
2022-09-24T00:32:07.518Z,61.10
2022-09-24T00:33:40.851Z,60.70
2022-09-24T00:35:14.189Z,61.00
2022-09-24T00:36:48.300Z,61.20
2022-09-24T00:38:22.842Z,60.70
2022-09-24T00:39:56.873Z,61.50
2022-09-24T00:41:33.561Z,61.40
2022-09-24T00:43:25.611Z,61.60
2022-09-24T00:45:00.979Z,61.90
2022-09-24T00:46:41.152Z,61.50
2022-09-24T00:48:14.894Z,61.90
2022-09-24T00:49:50.319Z,61.50
2022-09-24T00:51:27.490Z,61.90
2022-09-24T00:53:06.257Z,61.90
2022-09-24T00:54:38.896Z,62.00
2022-09-24T00:56:16.068Z,61.90
2022-09-24T00:57:53.716Z,62.20
2022-09-24T00:59:29.138Z,62.10
2022-09-24T01:01:09.760Z,62.20
2022-09-24T01:02:47.298Z,62.30
2022-09-24T01:04:22.249Z,62.50
2022-09-24T01:05:57.747Z,62.60
2022-09-24T01:07:31.585Z,62.50
2022-09-24T01:09:05.817Z,62.20
2022-09-24T01:10:58.214Z,62.30
2022-09-24T01:12:43.070Z,62.80
2022-09-24T01:14:58.518Z,62.70
2022-09-24T01:16:45.495Z,63.00
2022-09-24T01:18:30.192Z,62.80
2022-09-24T01:20:44.823Z,62.70
2022-09-24T01:22:40.118Z,63.20
2022-09-24T01:24:48.828Z,63.10
2022-09-24T01:26:44.892Z,63.10
2022-09-24T01:28:38.741Z,63.30
2022-09-24T01:30:15.447Z,63.20
2022-09-24T01:31:56.960Z,62.90
2022-09-24T01:33:34.872Z,62.90
2022-09-24T01:35:17.031Z,63.00
2022-09-24T01:36:51.791Z,63.40
2022-09-24T01:38:34.277Z,63.10
2022-09-24T01:40:11.822Z,63.30
2022-09-24T01:41:47.117Z,63.10
2022-09-24T01:43:25.848Z,63.30
2022-09-24T01:45:01.925Z,63.40
2022-09-24T01:46:40.250Z,63.30
2022-09-24T01:48:14.615Z,63.20
2022-09-24T01:49:47.309Z,63.00
2022-09-24T01:51:27.645Z,63.00
2022-09-24T01:53:08.388Z,63.30
2022-09-24T01:54:50.262Z,63.20
2022-09-24T01:56:28.268Z,63.30
2022-09-24T01:58:09.134Z,62.90
2022-09-24T01:59:50.209Z,63.30
2022-09-24T02:01:31.585Z,63.20
2022-09-24T02:03:14.360Z,63.30
2022-09-24T02:04:55.172Z,63.30
2022-09-24T02:06:37.318Z,63.10
2022-09-24T02:08:18.225Z,63.60
2022-09-24T02:09:52.023Z,63.30
2022-09-24T02:11:28.041Z,62.50
2022-09-24T02:13:08.161Z,63.30
2022-09-24T02:14:49.003Z,63.10
2022-09-24T02:16:26.933Z,63.40
2022-09-24T02:18:07.941Z,63.30
2022-09-24T02:19:43.684Z,63.40
2022-09-24T02:21:21.113Z,63.40
2022-09-24T02:22:58.385Z,63.50
2022-09-24T02:24:41.704Z,63.50
2022-09-24T02:26:15.320Z,63.10
2022-09-24T02:27:48.827Z,63.30
2022-09-24T02:29:23.119Z,63.10
2022-09-24T02:31:08.176Z,63.00
2022-09-24T02:32:44.720Z,63.40
2022-09-24T02:34:25.613Z,63.40
2022-09-24T02:36:00.053Z,63.40
2022-09-24T02:37:38.498Z,63.20
2022-09-24T02:39:10.887Z,64.20
2022-09-24T02:40:45.076Z,63.30
2022-09-24T02:42:21.218Z,63.20
2022-09-24T02:43:53.866Z,63.40
2022-09-24T02:45:27.358Z,63.30
2022-09-24T02:47:01.433Z,63.10
2022-09-24T02:48:35.493Z,63.20
2022-09-24T02:50:10.417Z,63.30
2022-09-24T02:51:46.387Z,63.40
2022-09-24T02:53:19.717Z,63.40
2022-09-24T02:54:52.211Z,63.00
2022-09-24T02:56:25.694Z,62.90
2022-09-24T02:57:59.177Z,62.90
2022-09-24T03:00:46.233Z,62.70
2022-09-24T03:02:19.858Z,63.50
2022-09-24T03:03:52.598Z,63.40
2022-09-24T03:05:26.786Z,63.20
2022-09-24T03:07:01.478Z,63.40
2022-09-24T03:08:35.142Z,63.20
2022-09-24T03:10:10.222Z,63.10
2022-09-24T03:11:44.127Z,63.30
2022-09-24T03:13:17.980Z,63.30
2022-09-24T03:14:51.588Z,63.30
2022-09-24T03:16:25.046Z,63.10
2022-09-24T03:17:58.347Z,63.20
2022-09-24T03:19:31.789Z,63.30
2022-09-24T03:21:08.780Z,63.10
2022-09-24T03:22:44.169Z,63.40
2022-09-24T03:24:17.705Z,63.10
2022-09-24T03:25:51.303Z,63.30
2022-09-24T03:27:24.806Z,63.30
2022-09-24T03:28:58.081Z,62.90
2022-09-24T03:30:49.033Z,63.00
2022-09-24T03:32:21.496Z,63.30
2022-09-24T03:33:55.868Z,63.40
2022-09-24T03:35:29.257Z,63.40
2022-09-24T03:37:03.432Z,63.10
2022-09-24T03:38:40.607Z,63.50
2022-09-24T03:40:14.188Z,63.60
2022-09-24T03:41:47.677Z,63.40
2022-09-24T03:43:20.320Z,63.40
2022-09-24T03:44:54.104Z,63.30
2022-09-24T03:46:28.449Z,63.20
2022-09-24T03:48:02.560Z,63.30
2022-09-24T03:49:34.880Z,63.40
2022-09-24T03:51:10.912Z,63.20
2022-09-24T03:52:43.303Z,63.50
2022-09-24T03:54:18.021Z,63.10
2022-09-24T03:55:57.430Z,63.20
2022-09-24T03:57:29.921Z,63.50
2022-09-24T03:59:03.674Z,63.30
2022-09-24T04:00:40.911Z,63.20
2022-09-24T04:02:15.592Z,63.40
2022-09-24T04:03:50.089Z,63.70
2022-09-24T04:05:23.559Z,63.60
2022-09-24T04:06:57.112Z,63.50
2022-09-24T04:08:31.569Z,63.40
2022-09-24T04:10:06.741Z,63.40
2022-09-24T04:11:40.085Z,64.70
2022-09-24T04:13:12.555Z,63.60
2022-09-24T04:14:45.850Z,63.70
2022-09-24T04:16:19.263Z,63.50
2022-09-24T04:17:52.225Z,63.70
2022-09-24T04:19:26.736Z,63.90
2022-09-24T04:21:01.342Z,63.40
2022-09-24T04:22:33.977Z,63.80
2022-09-24T04:24:08.849Z,63.20
2022-09-24T04:25:43.730Z,63.80
2022-09-24T04:27:16.016Z,63.90
2022-09-24T04:28:50.334Z,63.70
2022-09-24T04:30:25.894Z,63.70
2022-09-24T04:31:59.277Z,64.30
2022-09-24T04:33:32.694Z,64.00
2022-09-24T04:35:07.905Z,64.20
2022-09-24T04:36:41.208Z,64.40
2022-09-24T04:38:15.319Z,64.20
2022-09-24T04:39:48.371Z,64.20
2022-09-24T04:41:23.321Z,64.20
2022-09-24T04:42:56.778Z,64.00
2022-09-24T04:44:30.302Z,64.40
2022-09-24T04:46:04.891Z,64.20
2022-09-24T04:47:40.799Z,64.30
2022-09-24T04:49:14.330Z,64.30
2022-09-24T04:50:46.959Z,63.90
2022-09-24T04:52:20.596Z,64.20
2022-09-24T04:53:54.713Z,64.30
2022-09-24T04:55:28.922Z,63.90
2022-09-24T04:57:02.593Z,64.30
2022-09-24T04:58:36.164Z,64.00
2022-09-24T05:00:15.400Z,64.00
2022-09-24T05:01:49.564Z,64.30
2022-09-24T05:03:23.369Z,65.00
2022-09-24T05:04:56.650Z,64.10
2022-09-24T05:06:30.341Z,63.90
2022-09-24T05:08:04.629Z,64.10
2022-09-24T05:09:38.542Z,64.20
2022-09-24T05:11:13.244Z,64.20
2022-09-24T05:12:48.304Z,63.90
2022-09-24T05:14:21.724Z,64.00
2022-09-24T05:15:55.450Z,64.10
2022-09-24T05:17:28.808Z,64.20
2022-09-24T05:19:04.776Z,63.90
2022-09-24T05:20:38.801Z,63.90
2022-09-24T05:22:12.639Z,64.00
2022-09-24T05:23:46.351Z,63.90
2022-09-24T05:25:22.647Z,63.80
2022-09-24T05:27:09.879Z,64.40
2022-09-24T05:28:43.590Z,64.00
2022-09-24T05:30:18.559Z,64.20
2022-09-24T05:31:51.234Z,64.40
2022-09-24T05:33:24.890Z,63.80
2022-09-24T05:34:58.995Z,64.20
2022-09-24T05:36:32.985Z,63.60
2022-09-24T05:38:06.953Z,64.10
2022-09-24T05:39:40.373Z,63.80
2022-09-24T05:41:13.032Z,64.30
2022-09-24T05:42:46.734Z,63.90
2022-09-24T05:44:21.737Z,63.60
2022-09-24T05:45:57.043Z,64.40
2022-09-24T05:47:30.785Z,64.30
2022-09-24T05:49:04.930Z,64.00
2022-09-24T05:50:38.376Z,64.00
2022-09-24T05:52:12.090Z,64.40
2022-09-24T05:53:45.937Z,64.60
2022-09-24T05:55:20.098Z,64.60
2022-09-24T05:56:54.955Z,64.40
2022-09-24T05:58:28.498Z,64.70
2022-09-24T06:00:03.503Z,64.50
2022-09-24T06:01:59.633Z,64.50
2022-09-24T06:03:33.232Z,64.80
2022-09-24T06:05:08.572Z,64.80
2022-09-24T06:06:43.389Z,65.00
2022-09-24T06:08:18.145Z,65.00
2022-09-24T06:09:52.068Z,65.00
2022-09-24T06:11:25.991Z,64.90
2022-09-24T06:13:00.322Z,65.00
2022-09-24T06:14:34.356Z,65.10
2022-09-24T06:16:09.707Z,65.00
2022-09-24T06:17:45.207Z,65.00
2022-09-24T06:19:18.725Z,65.00
2022-09-24T06:20:52.492Z,64.90
2022-09-24T06:22:28.581Z,64.80
2022-09-24T06:24:03.163Z,64.80
2022-09-24T06:25:36.547Z,64.90
2022-09-24T06:27:09.856Z,64.80
2022-09-24T06:28:43.800Z,64.80
2022-09-24T06:30:17.440Z,64.70
2022-09-24T06:31:53.242Z,64.50
2022-09-24T06:33:28.586Z,64.50
2022-09-24T06:35:02.160Z,64.80
2022-09-24T06:36:36.034Z,65.00
2022-09-24T06:38:13.560Z,65.10
2022-09-24T06:39:46.909Z,65.20
2022-09-24T06:41:20.268Z,65.30
2022-09-24T06:42:54.101Z,65.40
2022-09-24T06:44:27.794Z,66.30
2022-09-24T06:46:03.535Z,65.40
2022-09-24T06:47:36.856Z,65.40
2022-09-24T06:49:12.354Z,65.50
2022-09-24T06:50:47.447Z,65.60
2022-09-24T06:52:21.121Z,65.70
2022-09-24T06:53:54.636Z,65.50
2022-09-24T06:55:28.358Z,65.60
2022-09-24T06:57:01.610Z,65.40
2022-09-24T06:58:35.102Z,65.10
2022-09-24T07:00:10.363Z,64.90
2022-09-24T07:01:44.234Z,64.90
2022-09-24T07:03:18.194Z,65.00
2022-09-24T07:04:53.070Z,65.00
2022-09-24T07:06:26.530Z,65.00
2022-09-24T07:07:59.175Z,64.90
2022-09-24T07:09:32.675Z,64.80
2022-09-24T07:11:06.519Z,64.80
2022-09-24T07:12:41.718Z,64.60
2022-09-24T07:14:15.399Z,64.20
2022-09-24T07:15:50.801Z,64.20
2022-09-24T07:17:25.617Z,64.30
2022-09-24T07:19:01.506Z,64.30
2022-09-24T07:20:36.998Z,64.30
2022-09-24T07:22:10.335Z,64.30
2022-09-24T07:23:43.915Z,64.30
2022-09-24T07:25:17.679Z,64.40
2022-09-24T07:26:51.036Z,64.40
2022-09-24T07:28:24.634Z,64.30
2022-09-24T07:29:57.935Z,64.30
2022-09-24T07:31:31.913Z,64.30
2022-09-24T07:33:06.173Z,64.30
2022-09-24T07:34:39.432Z,64.30
2022-09-24T07:36:14.318Z,64.20
2022-09-24T07:37:47.711Z,63.80
2022-09-24T07:39:21.039Z,63.70
2022-09-24T07:40:59.139Z,63.60
2022-09-24T07:42:32.813Z,63.70
2022-09-24T07:44:07.772Z,63.40
2022-09-24T07:45:42.126Z,63.30
2022-09-24T07:47:16.916Z,63.50
2022-09-24T07:48:50.511Z,63.70
2022-09-24T07:50:24.202Z,63.60
2022-09-24T07:51:59.067Z,63.80
2022-09-24T07:53:32.724Z,63.70
2022-09-24T07:55:07.882Z,63.50
2022-09-24T07:56:41.446Z,63.60
2022-09-24T07:58:16.119Z,63.50
2022-09-24T07:59:51.431Z,63.70
2022-09-24T08:01:25.559Z,63.80
2022-09-24T08:02:59.298Z,63.60
2022-09-24T08:04:32.554Z,63.50
2022-09-24T08:06:06.387Z,63.70
2022-09-24T08:07:41.156Z,63.60
2022-09-24T08:09:16.624Z,63.30
2022-09-24T08:10:50.117Z,63.50
2022-09-24T08:12:27.118Z,63.40
2022-09-24T08:14:01.084Z,63.40
2022-09-24T08:15:35.043Z,63.40
2022-09-24T08:17:08.448Z,63.40
2022-09-24T08:18:44.478Z,63.30
2022-09-24T08:20:18.381Z,63.50
2022-09-24T08:21:51.864Z,63.20
2022-09-24T08:23:27.728Z,63.10
2022-09-24T08:25:01.109Z,63.10
2022-09-24T08:26:34.408Z,63.20
2022-09-24T08:28:11.221Z,63.10
2022-09-24T08:29:45.517Z,63.40
2022-09-24T08:31:19.184Z,63.40
2022-09-24T08:32:52.581Z,63.20
2022-09-24T08:34:26.298Z,63.20
2022-09-24T08:36:01.319Z,63.20
2022-09-24T08:37:34.676Z,63.20
2022-09-24T08:39:10.485Z,62.80
2022-09-24T08:40:50.833Z,62.70
2022-09-24T08:42:38.057Z,62.80
2022-09-24T08:44:39.835Z,62.80
2022-09-24T08:46:41.509Z,62.60
2022-09-24T08:48:22.338Z,62.70
2022-09-24T08:50:10.119Z,62.70
2022-09-24T08:52:07.599Z,62.40
2022-09-24T08:53:49.976Z,62.30
2022-09-24T08:55:34.967Z,62.20
2022-09-24T08:57:17.941Z,61.80
2022-09-24T08:58:59.084Z,61.70
2022-09-24T09:00:48.578Z,61.70
2022-09-24T09:02:42.297Z,61.50
2022-09-24T09:04:28.661Z,61.90
2022-09-24T09:06:10.045Z,62.30
2022-09-24T09:07:56.328Z,62.10
2022-09-24T09:09:44.251Z,62.40
2022-09-24T09:11:24.486Z,62.20
2022-09-24T09:13:07.676Z,63.00
2022-09-24T09:14:51.145Z,62.20
2022-09-24T09:16:30.331Z,62.10
2022-09-24T09:18:15.066Z,61.80
2022-09-24T09:19:55.565Z,61.70
2022-09-24T09:21:37.962Z,61.60
2022-09-24T09:23:20.679Z,61.80
2022-09-24T09:25:01.146Z,61.60
2022-09-24T09:26:38.892Z,61.80
2022-09-24T09:28:15.371Z,61.10
2022-09-24T09:30:01.808Z,60.70
2022-09-24T09:31:55.430Z,60.20
2022-09-24T09:33:46.410Z,59.70
2022-09-24T09:35:30.247Z,60.20
2022-09-24T09:37:24.933Z,59.40
2022-09-24T09:39:15.133Z,59.40
2022-09-24T09:41:00.846Z,59.50
2022-09-24T09:42:40.377Z,59.40
2022-09-24T09:44:21.934Z,59.30
2022-09-24T09:46:10.560Z,59.20
2022-09-24T09:47:50.511Z,59.10
2022-09-24T09:49:28.965Z,59.00
2022-09-24T09:51:07.401Z,58.70
2022-09-24T09:52:40.468Z,58.20
2022-09-24T09:54:14.234Z,57.80
2022-09-24T09:55:55.760Z,57.60
2022-09-24T09:57:28.184Z,57.50
2022-09-24T09:59:17.969Z,57.20
2022-09-24T10:00:52.408Z,57.10
2022-09-24T10:02:31.401Z,57.10
2022-09-24T10:04:06.719Z,56.90
2022-09-24T10:05:40.623Z,56.50
2022-09-24T10:07:17.061Z,56.10
2022-09-24T10:08:50.867Z,56.10
2022-09-24T10:10:25.922Z,56.00
2022-09-24T10:12:16.971Z,56.00
2022-09-24T10:14:10.756Z,56.40
2022-09-24T10:15:53.176Z,55.60
2022-09-24T10:17:31.894Z,56.00
2022-09-24T10:19:05.994Z,56.00
2022-09-24T10:20:39.357Z,56.00
2022-09-24T10:22:22.052Z,55.80
2022-09-24T10:24:03.827Z,55.90
2022-09-24T10:25:38.123Z,55.90
2022-09-24T10:27:22.332Z,56.00
2022-09-24T10:29:13.560Z,55.80
2022-09-24T10:31:02.187Z,55.60
2022-09-24T10:32:35.738Z,55.00
2022-09-24T10:34:28.581Z,55.50
2022-09-24T10:36:07.881Z,55.20
2022-09-24T10:37:53.669Z,54.80
2022-09-24T10:39:27.301Z,55.30
2022-09-24T10:41:01.531Z,55.30
2022-09-24T10:42:34.985Z,55.20
2022-09-24T10:44:12.908Z,55.00
2022-09-24T10:46:14.872Z,54.60
2022-09-24T10:47:58.524Z,54.50
2022-09-24T10:49:56.265Z,54.30
2022-09-24T10:51:40.792Z,54.20
2022-09-24T10:53:22.833Z,54.60
2022-09-24T10:55:07.372Z,54.60
2022-09-24T10:56:49.219Z,55.00
2022-09-24T10:58:57.109Z,54.60
2022-09-24T11:00:40.836Z,55.30
2022-09-24T11:02:46.642Z,55.80
2022-09-24T11:04:39.082Z,55.50
2022-09-24T11:06:49.651Z,55.60
2022-09-24T11:08:47.205Z,55.60
2022-09-24T11:10:41.453Z,55.80
2022-09-24T11:12:31.307Z,55.50
2022-09-24T11:14:23.704Z,55.40
2022-09-24T11:16:39.127Z,55.50
2022-09-24T11:18:38.664Z,55.50
2022-09-24T11:20:36.500Z,55.60
2022-09-24T11:22:16.718Z,55.70
2022-09-24T11:24:36.368Z,55.70
2022-09-24T11:26:26.991Z,56.10
2022-09-24T11:28:24.536Z,56.00
2022-09-24T11:30:13.137Z,56.20
2022-09-24T11:32:02.103Z,56.10
2022-09-24T11:34:09.209Z,56.20
2022-09-24T11:36:08.570Z,56.20
2022-09-24T11:37:59.458Z,56.10
2022-09-24T11:39:52.895Z,56.10
2022-09-24T11:41:44.648Z,56.00
2022-09-24T11:43:48.341Z,56.00
2022-09-24T11:45:49.914Z,56.10
2022-09-24T11:47:41.662Z,55.90
2022-09-24T11:49:38.897Z,55.80
2022-09-24T11:51:31.095Z,55.60
2022-09-24T11:53:14.753Z,55.60
2022-09-24T11:55:00.125Z,55.60
2022-09-24T11:56:41.436Z,55.70
2022-09-24T11:58:21.835Z,55.90
2022-09-24T12:00:02.042Z,56.00
2022-09-24T12:02:01.349Z,56.30
2022-09-24T12:03:45.435Z,56.30
2022-09-24T12:05:29.660Z,56.40
2022-09-24T12:07:13.421Z,56.40
2022-09-24T12:08:57.670Z,56.50
2022-09-24T12:10:39.696Z,56.40
2022-09-24T12:12:20.065Z,56.50
2022-09-24T12:14:04.467Z,56.60
2022-09-24T12:15:49.498Z,56.40
2022-09-24T12:17:34.058Z,56.60
2022-09-24T12:19:18.201Z,56.70
2022-09-24T12:20:56.587Z,57.10
2022-09-24T12:22:32.377Z,57.60
2022-09-24T12:24:15.473Z,57.80
2022-09-24T12:25:51.423Z,57.80
2022-09-24T12:27:34.592Z,58.00
2022-09-24T12:29:51.773Z,58.10
2022-09-24T12:31:51.532Z,58.50
2022-09-24T12:33:36.397Z,58.60
2022-09-24T12:35:23.188Z,58.80
2022-09-24T12:37:04.739Z,58.90
2022-09-24T12:38:45.943Z,59.10
2022-09-24T12:40:57.894Z,59.30
2022-09-24T12:42:40.148Z,59.60
2022-09-24T12:44:23.295Z,59.60
2022-09-24T12:46:02.759Z,59.60
2022-09-24T12:47:48.764Z,59.60
2022-09-24T12:49:35.292Z,59.80
2022-09-24T12:51:10.410Z,59.70
2022-09-24T12:52:44.578Z,59.70
2022-09-24T12:54:28.432Z,60.10
2022-09-24T12:56:03.872Z,60.40
2022-09-24T12:57:42.614Z,60.40
2022-09-24T12:59:27.205Z,60.60
2022-09-24T13:01:14.883Z,61.20
2022-09-24T13:02:52.184Z,61.50
2022-09-24T13:04:30.208Z,61.40
2022-09-24T13:06:05.975Z,61.70
2022-09-24T13:07:42.080Z,61.90
2022-09-24T13:09:34.566Z,63.20
2022-09-24T13:11:30.504Z,62.30
2022-09-24T13:13:23.115Z,62.30
2022-09-24T13:15:02.612Z,62.00
2022-09-24T13:16:41.187Z,61.70
2022-09-24T13:18:24.095Z,61.70
2022-09-24T13:20:08.241Z,62.00
2022-09-24T13:21:41.789Z,62.30
2022-09-24T13:23:44.079Z,62.10
2022-09-24T13:25:24.680Z,62.10
2022-09-24T13:27:21.567Z,62.10
2022-09-24T13:28:58.342Z,62.10
2022-09-24T13:30:41.511Z,62.10
2022-09-24T13:32:22.895Z,62.10
2022-09-24T13:34:02.560Z,61.80
2022-09-24T13:35:49.167Z,61.90
2022-09-24T13:37:32.979Z,62.40
2022-09-24T13:39:16.341Z,62.20
2022-09-24T13:40:58.709Z,62.20
2022-09-24T13:42:38.748Z,62.30
2022-09-24T13:44:21.518Z,62.30
2022-09-24T13:45:55.452Z,62.20
2022-09-24T13:47:36.123Z,62.30
2022-09-24T13:49:18.625Z,62.70
2022-09-24T13:50:54.679Z,62.80
2022-09-24T13:52:36.890Z,62.60
2022-09-24T13:54:23.352Z,62.90
2022-09-24T13:56:03.843Z,63.00
2022-09-24T13:57:46.009Z,62.90
2022-09-24T13:59:19.642Z,63.10
2022-09-24T14:00:53.428Z,63.00
2022-09-24T14:02:29.802Z,63.20
2022-09-24T14:04:08.840Z,63.40
2022-09-24T14:05:43.199Z,63.40
2022-09-24T14:07:21.646Z,63.20
2022-09-24T14:08:55.339Z,63.30
2022-09-24T14:10:29.648Z,63.30
2022-09-24T14:12:15.303Z,63.30
2022-09-24T14:13:48.893Z,63.40
2022-09-24T14:15:22.275Z,63.30
2022-09-24T14:17:07.467Z,63.10
2022-09-24T14:18:43.250Z,63.30
2022-09-24T14:20:23.347Z,63.30
2022-09-24T14:22:00.298Z,63.30
2022-09-24T14:23:42.936Z,63.40
2022-09-24T14:25:23.228Z,63.60
2022-09-24T14:27:01.820Z,64.20
2022-09-24T14:28:36.240Z,63.40
2022-09-24T14:30:20.237Z,64.00
2022-09-24T14:31:59.449Z,63.10
2022-09-24T14:33:35.245Z,63.30
2022-09-24T14:35:19.468Z,63.40
2022-09-24T14:36:53.949Z,63.40
2022-09-24T14:38:36.251Z,63.20
2022-09-24T14:40:16.851Z,63.40
2022-09-24T14:41:50.330Z,63.50
2022-09-24T14:43:35.105Z,63.50
2022-09-24T14:45:11.851Z,63.50
2022-09-24T14:46:51.667Z,63.40
2022-09-24T14:48:30.769Z,63.50
2022-09-24T14:50:08.235Z,63.60
2022-09-24T14:51:54.490Z,63.50
2022-09-24T14:53:33.154Z,63.70
2022-09-24T14:55:18.926Z,63.50
2022-09-24T14:56:52.823Z,63.80
2022-09-24T14:58:39.695Z,63.60
2022-09-24T15:00:31.079Z,64.20
2022-09-24T15:02:17.539Z,64.40
2022-09-24T15:03:54.574Z,64.10
2022-09-24T15:05:30.708Z,63.90
2022-09-24T15:07:04.693Z,64.10
2022-09-24T15:08:38.636Z,64.20
2022-09-24T15:10:24.072Z,64.40
2022-09-24T15:12:22.579Z,64.70
2022-09-24T15:14:14.731Z,64.80
2022-09-24T15:15:48.435Z,64.50
2022-09-24T15:17:26.872Z,64.50
2022-09-24T15:19:16.792Z,64.60
2022-09-24T15:20:52.976Z,64.60
2022-09-24T15:22:28.197Z,64.20
2022-09-24T15:24:02.443Z,64.20
2022-09-24T15:25:38.607Z,64.50
2022-09-24T15:27:23.196Z,64.60
2022-09-24T15:28:58.384Z,64.60
2022-09-24T15:30:32.374Z,64.40
2022-09-24T15:32:18.171Z,63.90
2022-09-24T15:33:51.569Z,64.00
2022-09-24T15:35:25.380Z,63.90
2022-09-24T15:37:00.644Z,63.90
2022-09-24T15:38:33.972Z,64.10
2022-09-24T15:40:17.305Z,64.00
2022-09-24T15:41:52.457Z,64.00
2022-09-24T15:43:26.649Z,63.90
2022-09-24T15:45:00.348Z,64.00
2022-09-24T15:46:34.350Z,64.20
2022-09-24T15:48:07.916Z,63.90
2022-09-24T15:49:42.491Z,64.00
2022-09-24T15:51:19.780Z,64.00
2022-09-24T15:52:58.728Z,64.10
2022-09-24T15:54:32.346Z,64.00
2022-09-24T15:56:06.442Z,63.90
2022-09-24T15:57:40.384Z,64.90
2022-09-24T15:59:15.350Z,64.00
2022-09-24T16:00:49.010Z,64.00
2022-09-24T16:02:27.306Z,64.00
2022-09-24T16:04:00.724Z,64.00
2022-09-24T16:05:34.059Z,64.00
2022-09-24T16:07:07.421Z,64.00
2022-09-24T16:08:41.970Z,64.00
2022-09-24T16:10:17.718Z,64.20
2022-09-24T16:11:51.068Z,64.30
2022-09-24T16:13:26.244Z,64.20
2022-09-24T16:15:00.635Z,64.30
2022-09-24T16:16:34.381Z,64.20
2022-09-24T16:18:10.227Z,64.40
2022-09-24T16:19:42.531Z,64.50
2022-09-24T16:21:16.625Z,64.50
2022-09-24T16:22:49.876Z,64.60
2022-09-24T16:24:23.548Z,64.50
2022-09-24T16:25:58.820Z,64.60
2022-09-24T16:27:33.783Z,64.60
2022-09-24T16:29:10.489Z,64.60
2022-09-24T16:30:44.098Z,64.60
2022-09-24T16:32:17.635Z,64.60
2022-09-24T16:33:50.863Z,64.70
2022-09-24T16:35:24.169Z,64.60
2022-09-24T16:36:57.559Z,64.60
2022-09-24T16:38:34.252Z,64.70
2022-09-24T16:40:09.375Z,64.70
2022-09-24T16:41:44.302Z,64.80
2022-09-24T16:43:17.668Z,64.70
2022-09-24T16:44:52.370Z,64.80
2022-09-24T16:46:25.995Z,64.70
2022-09-24T16:47:59.381Z,64.70
2022-09-24T16:49:32.753Z,64.60
2022-09-24T16:51:09.090Z,64.50
2022-09-24T16:52:44.813Z,64.60
2022-09-24T16:54:19.741Z,64.50
2022-09-24T16:55:53.530Z,64.70
2022-09-24T16:57:27.273Z,64.60
2022-09-24T16:59:00.773Z,64.70
2022-09-24T17:00:35.435Z,64.50
2022-09-24T17:02:09.032Z,64.50
2022-09-24T17:03:42.825Z,64.50
2022-09-24T17:05:16.361Z,64.50
2022-09-24T17:06:49.695Z,64.50
2022-09-24T17:08:23.524Z,64.40
2022-09-24T17:10:15.470Z,64.40
2022-09-24T17:11:48.455Z,64.40
2022-09-24T17:13:23.085Z,64.20
2022-09-24T17:14:57.599Z,64.20
2022-09-24T17:16:32.303Z,64.30
2022-09-24T17:18:05.751Z,64.10
2022-09-24T17:19:39.412Z,64.20
2022-09-24T17:21:14.655Z,64.20
2022-09-24T17:22:49.657Z,64.30
2022-09-24T17:24:22.333Z,64.30
2022-09-24T17:26:03.504Z,64.30
2022-09-24T17:27:36.880Z,64.70
2022-09-24T17:29:10.737Z,64.40
2022-09-24T17:30:45.952Z,64.50
2022-09-24T17:32:20.803Z,64.70
2022-09-24T17:33:56.151Z,64.70
2022-09-24T17:35:29.659Z,64.70
2022-09-24T17:37:03.229Z,64.70
2022-09-24T17:38:38.752Z,64.70
2022-09-24T17:40:12.712Z,64.80
2022-09-24T17:41:46.163Z,64.80
2022-09-24T17:43:19.358Z,64.90
2022-09-24T17:44:52.680Z,65.00
2022-09-24T17:46:28.581Z,64.90
2022-09-24T17:48:05.904Z,64.80
2022-09-24T17:49:39.154Z,64.70
2022-09-24T17:51:15.255Z,64.70
2022-09-24T17:52:50.851Z,64.70
2022-09-24T17:54:26.843Z,65.50
2022-09-24T17:56:00.934Z,64.70
2022-09-24T17:57:34.412Z,64.40
2022-09-24T17:59:10.201Z,64.30
2022-09-24T18:00:43.702Z,64.30
2022-09-24T18:02:17.077Z,64.30
2022-09-24T18:03:56.219Z,64.30
2022-09-24T18:05:30.010Z,64.40
2022-09-24T18:07:03.353Z,64.20
2022-09-24T18:08:38.282Z,64.20
2022-09-24T18:10:11.743Z,64.30
2022-09-24T18:11:47.687Z,64.30
2022-09-24T18:13:21.273Z,64.30
2022-09-24T18:14:54.520Z,64.30
2022-09-24T18:16:30.994Z,64.10
2022-09-24T18:18:04.659Z,64.10
2022-09-24T18:19:39.337Z,64.20
2022-09-24T18:21:15.285Z,64.20
2022-09-24T18:22:49.139Z,64.10
2022-09-24T18:24:22.860Z,64.00
2022-09-24T18:25:56.866Z,64.00
2022-09-24T18:27:32.139Z,64.00
2022-09-24T18:29:10.046Z,64.10
2022-09-24T18:30:44.117Z,64.10
2022-09-24T18:32:19.291Z,64.00
2022-09-24T18:33:55.331Z,64.00
2022-09-24T18:35:30.044Z,64.00
2022-09-24T18:37:03.967Z,64.40
2022-09-24T18:38:37.801Z,63.90
2022-09-24T18:40:12.727Z,63.80
2022-09-24T18:41:46.093Z,63.90
2022-09-24T18:43:19.488Z,63.80
2022-09-24T18:44:52.847Z,63.70
2022-09-24T18:46:29.956Z,63.70
2022-09-24T18:48:04.107Z,63.70
2022-09-24T18:49:38.072Z,63.60
2022-09-24T18:51:18.825Z,63.50
2022-09-24T18:52:53.504Z,63.50
2022-09-24T18:54:26.784Z,63.40
2022-09-24T18:56:05.254Z,63.20
2022-09-24T18:57:38.736Z,63.20
2022-09-24T18:59:15.170Z,63.20
2022-09-24T19:00:51.947Z,63.40
2022-09-24T19:02:26.348Z,63.40
2022-09-24T19:04:01.064Z,63.30
2022-09-24T19:05:35.513Z,63.20
2022-09-24T19:07:10.944Z,63.10
2022-09-24T19:08:44.461Z,63.10
2022-09-24T19:10:17.898Z,63.20
2022-09-24T19:11:51.620Z,64.10
2022-09-24T19:13:26.733Z,63.40
2022-09-24T19:15:00.433Z,63.50
2022-09-24T19:16:33.913Z,63.60
2022-09-24T19:18:08.184Z,63.60
2022-09-24T19:19:41.852Z,63.60
2022-09-24T19:21:15.749Z,63.60
2022-09-24T19:22:59.609Z,63.70
2022-09-24T19:24:33.256Z,63.80
2022-09-24T19:26:08.575Z,63.80
2022-09-24T19:27:41.982Z,63.80
2022-09-24T19:29:15.557Z,63.70
2022-09-24T19:30:50.308Z,63.70
2022-09-24T19:32:24.091Z,63.60
2022-09-24T19:33:58.530Z,63.70
2022-09-24T19:35:32.226Z,63.60
2022-09-24T19:37:05.873Z,63.70
2022-09-24T19:38:41.622Z,63.60
2022-09-24T19:40:14.059Z,63.60
2022-09-24T19:41:48.879Z,63.60
2022-09-24T19:43:22.303Z,63.60
2022-09-24T19:44:56.072Z,63.60
2022-09-24T19:46:31.385Z,63.60
2022-09-24T19:48:04.880Z,63.70
2022-09-24T19:49:38.400Z,64.60
2022-09-24T19:51:15.323Z,63.80
2022-09-24T19:52:48.677Z,63.80
2022-09-24T19:54:23.475Z,63.80
2022-09-24T19:55:57.151Z,63.90
2022-09-24T19:57:30.740Z,63.80
2022-09-24T19:59:04.728Z,64.70
2022-09-24T20:00:39.204Z,63.80
2022-09-24T20:02:13.839Z,63.80
2022-09-24T20:03:48.567Z,63.80
2022-09-24T20:05:22.176Z,63.90
2022-09-24T20:06:55.483Z,64.10
2022-09-24T20:08:28.812Z,64.20
2022-09-24T20:10:03.749Z,64.30
2022-09-24T20:11:37.146Z,64.40
2022-09-24T20:13:11.651Z,64.40
2022-09-24T20:14:45.092Z,64.40
2022-09-24T20:16:20.979Z,64.40
2022-09-24T20:17:55.932Z,64.40
2022-09-24T20:19:29.130Z,64.60
2022-09-24T20:21:05.065Z,64.60
2022-09-24T20:22:38.420Z,64.50
2022-09-24T20:24:13.581Z,64.50
2022-09-24T20:26:10.404Z,64.60
2022-09-24T20:27:52.929Z,64.50
2022-09-24T20:29:26.524Z,64.40
2022-09-24T20:30:59.852Z,64.40
2022-09-24T20:32:33.748Z,64.40
2022-09-24T20:34:07.020Z,64.40
2022-09-24T20:35:42.039Z,64.40
2022-09-24T20:37:15.423Z,64.60
2022-09-24T20:38:49.491Z,64.50
2022-09-24T20:40:22.778Z,64.60
2022-09-24T20:41:59.849Z,64.50
2022-09-24T20:43:33.942Z,64.60
2022-09-24T20:45:09.634Z,64.50
2022-09-24T20:46:43.311Z,64.50
2022-09-24T20:48:17.111Z,64.40
2022-09-24T20:49:50.700Z,64.50
2022-09-24T20:51:26.246Z,64.50
2022-09-24T20:52:59.472Z,64.60
2022-09-24T20:54:34.447Z,64.60
2022-09-24T20:56:09.151Z,64.60
2022-09-24T20:57:44.468Z,64.60
2022-09-24T20:59:18.138Z,64.70
2022-09-24T21:00:54.562Z,64.70
2022-09-24T21:02:28.961Z,64.60
2022-09-24T21:04:04.329Z,64.60